Time;durP1;ratioP1;P1;durP2;ratioP2;P2;SDS_P1;SDS_P2;PMS_P1;PMS_P2;Temp;Humidity;BMP_temperature;BMP_pressure;BME280_temperature;BME280_humidity;BME280_pressure;Samples;Min_cycle;Max_cycle;Signal;HPM_P1;HPM_P2
2021/12/13 00:09:34;;;;;;;13.40;3.83;;;10.60;99.90;;;;;;20731663;28;20626;-44
2021/12/13 00:19:43;;;;;;;9.05;3.20;;;10.50;99.90;;;;;;20730285;28;20045;-44
2021/12/13 00:29:54;;;;;;;11.68;3.17;;;10.50;99.90;;;;;;20732760;28;20033;-44
2021/12/13 00:40:01;;;;;;;11.45;3.65;;;10.50;99.90;;;;;;20727148;28;20402;-44
2021/12/13 00:50:06;;;;;;;14.38;4.25;;;10.40;99.90;;;;;;20726650;28;20037;-44
2021/12/13 01:00:27;;;;;;;10.27;2.42;;;10.30;99.90;;;;;;20731720;28;20046;-44
2021/12/13 01:11:06;;;;;;;6.13;2.00;;;10.30;99.90;;;;;;20738581;28;20360;-44
2021/12/13 01:21:16;;;;;;;4.38;1.23;;;10.20;99.90;;;;;;20738030;28;20141;-44
2021/12/13 01:31:19;;;;;;;3.95;1.45;;;10.20;99.90;;;;;;20732311;28;20041;-44
2021/12/13 01:41:28;;;;;;;5.28;1.98;;;10.10;99.90;;;;;;20729063;28;20038;-44
2021/12/13 01:51:33;;;;;;;3.85;1.52;;;10.10;99.90;;;;;;20714621;28;20045;-44
2021/12/13 02:01:34;;;;;;;4.35;1.42;;;10.10;99.90;;;;;;20728965;28;20161;-44
2021/12/13 02:11:37;;;;;;;2.88;1.52;;;10.00;99.90;;;;;;20733970;28;20057;-44
2021/12/13 02:21:38;;;;;;;3.00;1.13;;;10.00;99.90;;;;;;20731239;28;20042;-44
2021/12/13 02:31:40;;;;;;;2.67;1.27;;;9.90;99.90;;;;;;20729731;28;20037;-45
2021/12/13 02:41:43;;;;;;;4.78;1.90;;;9.90;99.90;;;;;;20730859;28;20496;-44
2021/12/13 02:51:49;;;;;;;9.60;2.13;;;9.90;99.90;;;;;;20737317;28;20490;-44
2021/12/13 03:02:08;;;;;;;5.88;2.40;;;9.80;99.90;;;;;;20728584;28;20049;-44
2021/12/13 03:12:14;;;;;;;10.55;3.10;;;9.90;99.90;;;;;;20729116;28;20046;-44
2021/12/13 03:22:56;;;;;;;8.95;3.42;;;9.90;99.90;;;;;;20732352;28;20478;-44
2021/12/13 03:33:10;;;;;;;9.07;4.53;;;9.90;99.90;;;;;;20725263;28;20045;-44
2021/12/13 03:43:24;;;;;;;10.90;3.97;;;9.80;99.90;;;;;;20731826;28;20046;-44
2021/12/13 03:53:28;;;;;;;12.05;4.22;;;9.90;99.90;;;;;;20725364;28;20551;-45
2021/12/13 04:03:30;;;;;;;12.88;4.28;;;9.90;99.90;;;;;;20733203;28;20050;-44
2021/12/13 04:13:36;;;;;;;12.25;4.57;;;9.90;99.90;;;;;;20739852;28;20621;-44
2021/12/13 04:23:38;;;;;;;9.55;4.57;;;9.90;99.90;;;;;;20732165;28;20042;-44
2021/12/13 04:33:43;;;;;;;10.65;5.38;;;9.90;99.90;;;;;;20730351;28;20034;-44
2021/12/13 04:43:46;;;;;;;13.25;4.97;;;9.90;99.90;;;;;;20731919;28;20042;-44
2021/12/13 04:53:49;;;;;;;12.40;4.53;;;9.80;99.90;;;;;;20733125;28;20492;-44
2021/12/13 05:03:55;;;;;;;9.82;3.70;;;9.90;99.90;;;;;;20728578;28;20045;-44
2021/12/13 05:13:58;;;;;;;11.73;5.07;;;9.90;99.90;;;;;;20732403;28;20168;-44
2021/12/13 05:24:03;;;;;;;10.57;4.60;;;9.90;99.90;;;;;;20732639;28;20048;-44
2021/12/13 05:34:06;;;;;;;14.88;4.60;;;9.90;99.90;;;;;;20726483;28;20076;-44
2021/12/13 05:44:10;;;;;;;8.95;4.15;;;9.80;99.90;;;;;;20727649;28;20049;-44
2021/12/13 05:54:28;;;;;;;8.38;4.47;;;9.90;99.90;;;;;;20741398;28;20053;-44
2021/12/13 06:04:54;;;;;;;8.88;4.75;;;9.80;99.90;;;;;;20739223;28;20057;-44
2021/12/13 06:14:56;;;;;;;8.48;4.32;;;9.80;99.90;;;;;;20738473;28;20050;-44
2021/12/13 06:25:07;;;;;;;13.63;5.03;;;9.80;99.90;;;;;;20735741;28;20096;-44
2021/12/13 06:35:30;;;;;;;8.40;3.50;;;9.80;99.90;;;;;;20735131;28;20038;-44
2021/12/13 06:45:36;;;;;;;13.95;5.20;;;9.80;99.90;;;;;;20725406;28;20232;-44
2021/12/13 06:55:37;;;;;;;11.13;4.68;;;9.80;99.90;;;;;;20727154;28;20037;-44
2021/12/13 07:05:51;;;;;;;9.48;4.13;;;9.80;99.90;;;;;;20727301;28;20057;-44
2021/12/13 07:16:04;;;;;;;16.95;5.47;;;9.80;99.90;;;;;;20706514;28;20319;-44
2021/12/13 07:26:05;;;;;;;13.45;5.22;;;9.90;99.90;;;;;;20728302;28;20042;-44
2021/12/13 07:36:18;;;;;;;12.82;5.38;;;9.90;99.90;;;;;;20723717;28;20420;-44
2021/12/13 07:46:19;;;;;;;16.65;6.28;;;10.00;99.90;;;;;;20721161;28;20038;-44
2021/12/13 07:56:36;;;;;;;13.63;4.95;;;10.00;99.90;;;;;;20714404;28;20041;-44
2021/12/13 08:06:42;;;;;;;14.13;4.70;;;10.00;99.90;;;;;;20717523;28;20068;-44
2021/12/13 08:16:47;;;;;;;14.50;5.60;;;10.10;99.90;;;;;;20723011;28;20520;-44
2021/12/13 08:26:56;;;;;;;15.13;5.25;;;9.90;99.90;;;;;;20711206;28;20034;-44
2021/12/13 08:36:58;;;;;;;15.15;5.20;;;9.90;99.90;;;;;;20738599;28;20057;-44
2021/12/13 08:47:06;;;;;;;12.73;4.78;;;9.80;99.90;;;;;;20747431;28;20042;-44
2021/12/13 08:57:52;;;;;;;17.43;5.73;;;9.80;99.90;;;;;;20747763;28;20048;-44
2021/12/13 09:08:00;;;;;;;13.93;5.55;;;9.80;99.90;;;;;;20744036;28;21392;-48
2021/12/13 09:18:02;;;;;;;19.47;5.37;;;9.80;99.90;;;;;;20720115;28;20030;-44
2021/12/13 09:28:17;;;;;;;12.50;3.78;;;9.80;99.90;;;;;;20746303;28;20460;-45
2021/12/13 09:38:21;;;;;;;18.65;5.72;;;9.90;99.90;;;;;;20762216;28;20041;-44
2021/12/13 09:48:27;;;;;;;12.73;5.38;;;9.90;99.90;;;;;;20761114;28;20044;-44
2021/12/13 09:58:39;;;;;;;11.00;4.83;;;10.00;99.90;;;;;;20760274;28;20042;-45
2021/12/13 10:08:49;;;;;;;10.18;4.15;;;10.00;99.90;;;;;;20762701;28;20034;-46
2021/12/13 10:18:53;;;;;;;13.07;3.95;;;10.00;99.90;;;;;;20744966;28;20056;-44
2021/12/13 10:28:56;;;;;;;11.75;4.50;;;10.10;99.90;;;;;;20760969;28;20026;-45
2021/12/13 10:39:11;;;;;;;10.93;3.60;;;10.10;99.90;;;;;;20757994;28;20040;-44
2021/12/13 10:49:16;;;;;;;14.32;4.53;;;10.20;99.90;;;;;;20758099;28;20041;-44
2021/12/13 10:59:23;;;;;;;11.07;3.88;;;10.20;99.90;;;;;;20754882;28;20044;-44
2021/12/13 11:09:25;;;;;;;10.32;3.40;;;10.20;99.90;;;;;;20749102;28;20053;-44
2021/12/13 11:19:31;;;;;;;8.80;2.90;;;10.30;99.90;;;;;;20766281;28;20034;-46
2021/12/13 11:29:32;;;;;;;8.32;3.38;;;10.30;99.90;;;;;;20766113;28;20674;-44
2021/12/13 11:40:19;;;;;;;7.20;3.72;;;10.30;99.90;;;;;;20762430;28;20045;-44
2021/12/13 11:50:46;;;;;;;11.50;2.95;;;10.40;99.90;;;;;;20755842;28;20042;-44
2021/12/13 12:01:19;;;;;;;10.13;4.03;;;10.40;99.90;;;;;;20754472;28;20034;-44
2021/12/13 12:11:43;;;;;;;9.85;3.22;;;10.40;99.90;;;;;;20752864;28;20076;-44
2021/12/13 12:21:53;;;;;;;9.55;2.97;;;10.30;99.90;;;;;;20753356;28;20051;-44
2021/12/13 12:32:03;;;;;;;10.65;3.85;;;10.40;99.90;;;;;;20753882;28;20026;-44
2021/12/13 12:42:22;;;;;;;12.23;3.05;;;10.40;99.90;;;;;;20753117;28;20042;-44
2021/12/13 12:52:24;;;;;;;12.32;3.40;;;10.40;99.90;;;;;;20754748;28;20037;-44
2021/12/13 13:02:31;;;;;;;13.75;4.32;;;10.40;99.90;;;;;;20763268;28;20042;-44
2021/12/13 13:12:36;;;;;;;12.30;3.67;;;10.40;99.90;;;;;;20767547;28;20072;-45
2021/12/13 13:22:40;;;;;;;7.15;2.55;;;10.40;99.90;;;;;;20770171;28;20045;-44
2021/12/13 13:32:41;;;;;;;7.53;3.15;;;10.40;99.90;;;;;;20766861;28;20038;-44
2021/12/13 13:43:11;;;;;;;8.77;3.63;;;10.30;99.90;;;;;;20758428;28;20044;-44
2021/12/13 13:53:20;;;;;;;6.75;2.72;;;10.30;99.90;;;;;;20758764;28;21642;-44
2021/12/13 14:03:37;;;;;;;10.40;3.38;;;10.20;99.90;;;;;;20757658;28;20498;-44
2021/12/13 14:13:41;;;;;;;6.93;2.85;;;10.20;99.90;;;;;;20754112;28;20068;-45
2021/12/13 14:23:46;;;;;;;11.00;3.65;;;10.10;99.90;;;;;;20752703;28;20489;-45
2021/12/13 14:33:57;;;;;;;8.68;3.50;;;10.20;99.90;;;;;;20753376;28;20045;-44
2021/12/13 14:44:02;;;;;;;5.10;2.70;;;10.10;99.90;;;;;;20737074;28;20036;-45
2021/12/13 14:54:04;;;;;;;5.47;2.80;;;10.10;99.90;;;;;;20757857;28;20041;-44
2021/12/13 15:04:16;;;;;;;10.93;3.97;;;10.10;99.90;;;;;;20754938;28;21410;-44
2021/12/13 15:14:29;;;;;;;8.57;2.75;;;10.00;99.90;;;;;;20756319;28;20037;-44
2021/12/13 15:24:33;;;;;;;6.45;3.25;;;10.00;99.90;;;;;;20754162;28;20048;-44
2021/12/13 15:34:45;;;;;;;6.35;2.15;;;9.90;99.90;;;;;;20754662;28;20049;-44
2021/12/13 15:44:46;;;;;;;14.23;3.28;;;9.90;99.90;;;;;;20750817;28;20045;-44
2021/12/13 15:54:50;;;;;;;9.25;3.17;;;9.90;99.90;;;;;;20748697;28;20623;-45
2021/12/13 16:05:27;;;;;;;9.55;2.83;;;9.80;99.90;;;;;;20750148;28;20056;-44
2021/12/13 16:15:31;;;;;;;9.90;3.20;;;9.80;99.90;;;;;;20662859;28;20133;-44
2021/12/13 16:25:35;;;;;;;8.70;3.00;;;9.70;99.90;;;;;;20671937;28;20045;-44
2021/12/13 16:35:41;;;;;;;8.70;3.10;;;9.80;99.90;;;;;;20667805;28;20044;-44
2021/12/13 16:45:49;;;;;;;6.25;2.90;;;9.80;99.90;;;;;;20661708;28;20042;-44
2021/12/13 16:55:50;;;;;;;7.43;2.85;;;9.80;99.90;;;;;;20663374;28;20410;-44
2021/12/13 17:06:05;;;;;;;8.02;3.28;;;9.70;99.90;;;;;;20672393;28;20053;-44
2021/12/13 17:16:24;;;;;;;5.97;2.67;;;9.70;99.90;;;;;;20718293;28;20059;-43
2021/12/13 17:26:44;;;;;;;5.45;2.08;;;9.60;99.90;;;;;;20668318;28;20414;-44
2021/12/13 17:36:47;;;;;;;8.05;2.70;;;9.70;99.90;;;;;;20689255;28;20033;-44
2021/12/13 17:46:49;;;;;;;7.78;2.70;;;9.70;99.90;;;;;;20681864;28;20128;-44
2021/12/13 17:56:53;;;;;;;6.95;3.25;;;9.70;99.90;;;;;;20657017;28;20038;-45
2021/12/13 18:07:04;;;;;;;7.53;2.13;;;9.60;99.90;;;;;;20622560;28;20037;-44
2021/12/13 18:17:14;;;;;;;5.40;1.95;;;9.60;99.90;;;;;;20687964;28;22915;-44
2021/12/13 18:27:27;;;;;;;5.90;2.05;;;9.50;99.90;;;;;;20689743;28;20216;-44
2021/12/13 18:37:28;;;;;;;10.48;2.85;;;9.50;99.90;;;;;;20682173;28;20989;-44
2021/12/13 18:47:30;;;;;;;8.30;2.97;;;9.50;99.90;;;;;;20684783;28;20037;-43
2021/12/13 18:57:51;;;;;;;5.70;2.58;;;9.50;99.90;;;;;;20686158;28;20124;-44
2021/12/13 19:07:58;;;;;;;9.57;2.53;;;9.50;99.90;;;;;;20679473;28;20049;-44
2021/12/13 19:18:04;;;;;;;8.40;2.70;;;9.50;99.90;;;;;;20683488;28;20037;-44
2021/12/13 19:28:14;;;;;;;5.87;2.23;;;9.50;99.90;;;;;;20694949;28;20050;-44
2021/12/13 19:38:19;;;;;;;5.80;2.47;;;9.50;99.90;;;;;;20692726;28;20429;-44
2021/12/13 19:48:53;;;;;;;5.68;2.53;;;9.40;99.90;;;;;;20690675;28;20042;-44
2021/12/13 19:59:09;;;;;;;5.07;2.83;;;9.40;99.90;;;;;;20690115;28;20643;-44
2021/12/13 20:09:16;;;;;;;6.05;2.58;;;9.40;99.90;;;;;;20685338;28;20050;-44
2021/12/13 20:19:24;;;;;;;6.22;2.60;;;9.40;99.90;;;;;;20690616;28;20037;-44
2021/12/13 20:29:30;;;;;;;11.13;2.35;;;9.30;99.90;;;;;;20688215;28;20037;-44
2021/12/13 20:39:49;;;;;;;5.78;1.95;;;9.30;99.90;;;;;;20682903;28;20040;-43
2021/12/13 20:49:53;;;;;;;5.72;2.80;;;9.30;99.90;;;;;;20673536;28;20545;-43
2021/12/13 21:00:04;;;;;;;5.47;2.58;;;9.20;99.90;;;;;;20649146;28;20038;-43
2021/12/13 21:10:24;;;;;;;6.25;2.83;;;9.20;99.90;;;;;;20666518;28;20042;-43
2021/12/13 21:20:31;;;;;;;7.55;3.28;;;9.20;99.90;;;;;;20667569;28;20053;-44
2021/12/13 21:30:36;;;;;;;;;;;9.10;99.90;;;;;;20677706;28;20037;-43
2021/12/13 21:41:02;;;;;;;8.85;3.13;;;9.10;99.90;;;;;;20676739;28;20467;-43
2021/12/13 21:51:12;;;;;;;6.75;3.22;;;9.00;99.90;;;;;;20651921;28;20432;-44
2021/12/13 22:01:36;;;;;;;7.70;2.97;;;9.10;99.90;;;;;;20672311;28;20041;-44
2021/12/13 22:11:43;;;;;;;8.23;4.05;;;9.00;99.90;;;;;;20667605;28;20533;-43
2021/12/13 22:21:47;;;;;;;7.63;3.23;;;9.00;99.90;;;;;;20676925;28;20049;-43
2021/12/13 22:31:49;;;;;;;9.95;3.67;;;9.00;99.90;;;;;;20667332;28;21210;-43
2021/12/13 22:41:58;;;;;;;8.48;3.33;;;9.00;99.90;;;;;;20667046;28;20052;-44
2021/12/13 22:52:10;;;;;;;7.95;4.00;;;9.00;99.90;;;;;;20667501;28;20041;-44
2021/12/13 23:02:16;;;;;;;9.43;3.00;;;9.10;99.90;;;;;;20664925;28;20053;-44
2021/12/13 23:22:52;;;;;;;14.23;4.35;;;9.00;99.90;;;;;;20660931;28;21472;-44
2021/12/13 23:32:57;;;;;;;11.38;3.83;;;8.90;99.90;;;;;;20661710;28;20049;-43
2021/12/13 23:53:10;;;;;;;13.18;4.70;;;9.00;99.90;;;;;;20660608;28;20037;-44
